Time;durP1;ratioP1;P1;durP2;ratioP2;P2;SDS_P1;SDS_P2;PMS_P1;PMS_P2;Temp;Humidity;BMP_temperature;BMP_pressure;BME280_temperature;BME280_humidity;BME280_pressure;Samples;Min_cycle;Max_cycle;Signal;HPM_P1;HPM_P2
2024/03/31 00:00:26;;;;;;;7.28;6.72;;;;;;;;;;4960559;28;20027;-74
2024/03/31 00:02:52;;;;;;;7.28;6.47;;;;;;;;;;4961602;28;20043;-73
2024/03/31 00:05:18;;;;;;;7.75;6.55;;;;;;;;;;4960667;28;20095;-74
2024/03/31 00:07:44;;;;;;;12.20;6.45;;;;;;;;;;4962903;28;20170;-73
2024/03/31 00:10:10;;;;;;;5.95;5.35;;;;;;;;;;4965188;28;20070;-74
2024/03/31 00:12:37;;;;;;;9.38;6.20;;;;;;;;;;4957046;28;20027;-74
2024/03/31 00:15:03;;;;;;;10.57;6.10;;;;;;;;;;4964903;28;20038;-73
2024/03/31 00:17:36;;;;;;;9.23;5.65;;;;;;;;;;4969430;28;20102;-74
2024/03/31 00:20:02;;;;;;;7.78;5.75;;;;;;;;;;4963737;28;20051;-74
2024/03/31 00:22:31;;;;;;;7.88;5.93;;;;;;;;;;4961173;28;20043;-75
2024/03/31 00:24:57;;;;;;;8.13;7.32;;;;;;;;;;4969428;28;20126;-74
2024/03/31 00:27:23;;;;;;;8.60;6.30;;;;;;;;;;4961897;28;20026;-74
2024/03/31 00:29:49;;;;;;;10.85;6.70;;;;;;;;;;4963336;28;20509;-74
2024/03/31 00:32:14;;;;;;;8.10;5.80;;;;;;;;;;4964892;28;20416;-74
2024/03/31 00:34:40;;;;;;;6.68;6.07;;;;;;;;;;4964192;28;20084;-74
2024/03/31 00:37:06;;;;;;;8.05;7.38;;;;;;;;;;4959397;28;20062;-74
2024/03/31 00:39:32;;;;;;;7.20;6.60;;;;;;;;;;4979012;28;20543;-74
2024/03/31 00:41:58;;;;;;;8.10;7.40;;;;;;;;;;4964624;28;20039;-73
2024/03/31 00:44:24;;;;;;;8.07;7.05;;;;;;;;;;4963940;28;20051;-73
2024/03/31 00:46:50;;;;;;;8.70;7.32;;;;;;;;;;4961287;28;20897;-74
2024/03/31 00:49:16;;;;;;;9.02;7.20;;;;;;;;;;4968228;28;20035;-74
2024/03/31 00:51:41;;;;;;;7.93;7.22;;;;;;;;;;4959300;28;20496;-73
2024/03/31 00:54:07;;;;;;;8.75;8.05;;;;;;;;;;4949814;28;20500;-74
2024/03/31 00:56:33;;;;;;;14.25;8.25;;;;;;;;;;4963206;28;20043;-74
2024/03/31 00:58:59;;;;;;;9.25;8.27;;;;;;;;;;4979504;28;20034;-73
2024/03/31 01:01:25;;;;;;;10.40;8.40;;;;;;;;;;4963732;28;20102;-73
2024/03/31 01:03:51;;;;;;;8.52;7.82;;;;;;;;;;4962893;28;20400;-73
2024/03/31 01:06:20;;;;;;;8.48;7.70;;;;;;;;;;4963191;28;20058;-74
2024/03/31 01:08:50;;;;;;;7.30;6.60;;;;;;;;;;4963757;28;20463;-74
2024/03/31 01:11:17;;;;;;;8.77;6.50;;;;;;;;;;4963052;28;20046;-74
2024/03/31 01:13:43;;;;;;;6.32;5.80;;;;;;;;;;4960295;28;20031;-74
2024/03/31 01:16:10;;;;;;;6.68;5.75;;;;;;;;;;4962952;28;20162;-74
2024/03/31 01:18:36;;;;;;;5.03;4.63;;;;;;;;;;4962185;28;20555;-74
2024/03/31 01:21:04;;;;;;;6.88;6.28;;;;;;;;;;4963625;28;20069;-74
2024/03/31 01:23:32;;;;;;;8.65;6.28;;;;;;;;;;4977982;28;20050;-74
2024/03/31 01:25:58;;;;;;;7.07;6.45;;;;;;;;;;4958439;28;20110;-74
2024/03/31 01:28:24;;;;;;;9.50;7.65;;;;;;;;;;4968277;28;20041;-74
2024/03/31 01:30:51;;;;;;;12.35;8.70;;;;;;;;;;4961350;28;20708;-73
2024/03/31 01:33:16;;;;;;;10.57;8.30;;;;;;;;;;4963636;28;20059;-74
2024/03/31 01:35:42;;;;;;;8.98;8.25;;;;;;;;;;4962562;28;20035;-74
2024/03/31 01:38:10;;;;;;;9.68;8.20;;;;;;;;;;4978864;28;20039;-74
2024/03/31 01:40:35;;;;;;;10.57;9.02;;;;;;;;;;4966176;28;20035;-74
2024/03/31 01:43:01;;;;;;;9.93;9.02;;;;;;;;;;4962737;28;20042;-74
2024/03/31 01:45:27;;;;;;;10.88;9.80;;;;;;;;;;4959878;28;20047;-74
2024/03/31 01:47:53;;;;;;;11.85;9.35;;;;;;;;;;4962866;28;20055;-74
2024/03/31 01:50:18;;;;;;;13.18;10.32;;;;;;;;;;4961713;28;20407;-74
2024/03/31 01:52:45;;;;;;;13.23;10.73;;;;;;;;;;4958397;28;20027;-75
2024/03/31 01:55:10;;;;;;;16.02;11.32;;;;;;;;;;4962946;28;21309;-75
2024/03/31 01:57:36;;;;;;;13.70;11.77;;;;;;;;;;4960804;28;20046;-74
2024/03/31 02:00:02;;;;;;;12.93;10.70;;;;;;;;;;4976177;28;20038;-73
2024/03/31 02:02:31;;;;;;;15.15;11.30;;;;;;;;;;4965542;28;20043;-74
2024/03/31 02:04:56;;;;;;;11.52;10.52;;;;;;;;;;4973423;28;20042;-73
2024/03/31 02:07:22;;;;;;;10.60;9.70;;;;;;;;;;4962229;28;20037;-73
2024/03/31 02:09:48;;;;;;;14.05;10.98;;;;;;;;;;4964429;28;20046;-74
2024/03/31 02:12:14;;;;;;;13.93;10.93;;;;;;;;;;4963142;28;20140;-74
2024/03/31 02:14:40;;;;;;;11.60;10.35;;;;;;;;;;4960003;28;20027;-74
2024/03/31 02:17:06;;;;;;;13.18;10.43;;;;;;;;;;4978378;28;20275;-73
2024/03/31 02:19:32;;;;;;;13.10;8.95;;;;;;;;;;4962404;28;20469;-74
2024/03/31 02:21:58;;;;;;;7.63;7.03;;;;;;;;;;4958423;28;20035;-74
2024/03/31 02:24:24;;;;;;;7.43;6.70;;;;;;;;;;4960854;28;20049;-74
2024/03/31 02:26:50;;;;;;;8.00;6.70;;;;;;;;;;4961664;28;20047;-74
2024/03/31 02:29:16;;;;;;;6.68;6.07;;;;;;;;;;4964497;28;20086;-74
2024/03/31 02:31:41;;;;;;;7.30;5.80;;;;;;;;;;4963205;28;20507;-74
2024/03/31 02:34:08;;;;;;;10.45;5.55;;;;;;;;;;4960564;28;20035;-74
2024/03/31 02:36:34;;;;;;;10.57;5.78;;;;;;;;;;4958876;28;20039;-75
2024/03/31 02:39:00;;;;;;;6.55;6.03;;;;;;;;;;4979546;28;20422;-73
2024/03/31 02:41:27;;;;;;;9.10;6.03;;;;;;;;;;4979222;28;20031;-74
2024/03/31 02:43:53;;;;;;;6.28;5.68;;;;;;;;;;4986898;28;20074;-74
2024/03/31 02:46:19;;;;;;;6.50;5.45;;;;;;;;;;4968574;28;20062;-75
2024/03/31 02:48:45;;;;;;;6.40;5.80;;;;;;;;;;4961210;28;20069;-75
2024/03/31 02:51:12;;;;;;;5.97;5.47;;;;;;;;;;4968514;28;20046;-75
2024/03/31 02:53:38;;;;;;;8.27;6.15;;;;;;;;;;4977297;28;20039;-74
2024/03/31 02:56:04;;;;;;;6.82;6.22;;;;;;;;;;4963839;28;20542;-74
2024/03/31 02:58:30;;;;;;;9.20;5.75;;;;;;;;;;4965966;28;20031;-74
2024/03/31 03:01:03;;;;;;;6.68;5.88;;;;;;;;;;4957317;28;20032;-74
2024/03/31 03:03:29;;;;;;;6.20;5.70;;;;;;;;;;4945087;28;20114;-73
2024/03/31 03:05:55;;;;;;;5.80;5.30;;;;;;;;;;4960548;28;20507;-73
2024/03/31 03:08:22;;;;;;;6.60;5.82;;;;;;;;;;4944207;29;20062;-73
2024/03/31 03:10:54;;;;;;;8.45;7.60;;;;;;;;;;4977920;28;20137;-73
2024/03/31 03:13:20;;;;;;;6.95;6.25;;;;;;;;;;4943109;28;20531;-74
2024/03/31 03:15:46;;;;;;;6.43;5.93;;;;;;;;;;4957663;28;20130;-74
2024/03/31 03:18:15;;;;;;;7.80;7.10;;;;;;;;;;4961482;28;20170;-73
2024/03/31 03:20:44;;;;;;;11.98;9.25;;;;;;;;;;4945562;28;20085;-73
2024/03/31 03:23:10;;;;;;;8.93;8.13;;;;;;;;;;4964721;28;20038;-73
2024/03/31 03:25:35;;;;;;;6.20;5.70;;;;;;;;;;4964889;28;20055;-73
2024/03/31 03:28:01;;;;;;;6.78;5.53;;;;;;;;;;4961559;28;20042;-73
2024/03/31 03:30:27;;;;;;;8.35;6.38;;;;;;;;;;4968402;28;20027;-73
2024/03/31 03:32:53;;;;;;;6.93;5.65;;;;;;;;;;4961907;28;20034;-73
2024/03/31 03:35:19;;;;;;;5.85;5.35;;;;;;;;;;4969012;28;20078;-74
2024/03/31 03:37:45;;;;;;;7.22;5.43;;;;;;;;;;4969100;28;20026;-74
2024/03/31 03:40:12;;;;;;;6.75;5.70;;;;;;;;;;4985858;28;20129;-74
2024/03/31 03:42:38;;;;;;;6.15;5.50;;;;;;;;;;4970475;28;20045;-74
2024/03/31 03:45:04;;;;;;;6.32;5.72;;;;;;;;;;4968443;28;20042;-74
2024/03/31 03:47:30;;;;;;;9.68;6.20;;;;;;;;;;4972355;28;20138;-73
2024/03/31 03:49:56;;;;;;;6.43;5.88;;;;;;;;;;4975061;28;20133;-75
2024/03/31 03:52:22;;;;;;;7.22;6.53;;;;;;;;;;4973538;28;20117;-74
2024/03/31 03:54:48;;;;;;;6.72;6.13;;;;;;;;;;4973314;28;20051;-73
2024/03/31 03:57:14;;;;;;;6.22;5.72;;;;;;;;;;4972523;28;20427;-74
2024/03/31 03:59:40;;;;;;;7.10;6.40;;;;;;;;;;4980916;28;20035;-73
2024/03/31 04:02:07;;;;;;;7.28;6.57;;;;;;;;;;4972589;28;20133;-73
2024/03/31 04:04:33;;;;;;;8.32;5.85;;;;;;;;;;4973254;28;20045;-73
2024/03/31 04:06:59;;;;;;;7.10;6.40;;;;;;;;;;4973137;28;20427;-73
2024/03/31 04:09:25;;;;;;;7.22;5.90;;;;;;;;;;4974230;28;20514;-73
2024/03/31 04:11:51;;;;;;;8.88;6.07;;;;;;;;;;4956570;28;20038;-73
2024/03/31 04:14:17;;;;;;;6.95;6.25;;;;;;;;;;4973079;28;20526;-73
2024/03/31 04:16:43;;;;;;;7.55;5.90;;;;;;;;;;4988041;28;20049;-73
2024/03/31 04:19:08;;;;;;;6.55;5.80;;;;;;;;;;4972934;28;20041;-72
2024/03/31 04:21:34;;;;;;;8.52;5.88;;;;;;;;;;4972853;28;20030;-73
2024/03/31 04:24:02;;;;;;;13.00;6.25;;;;;;;;;;4956256;28;20057;-73
2024/03/31 04:26:28;;;;;;;7.10;6.50;;;;;;;;;;4971935;28;20047;-73
2024/03/31 04:28:54;;;;;;;9.90;5.68;;;;;;;;;;4972091;28;20046;-73
2024/03/31 04:31:20;;;;;;;6.25;5.72;;;;;;;;;;4988932;28;20234;-73
2024/03/31 04:33:46;;;;;;;6.68;5.65;;;;;;;;;;4988315;28;20046;-73
2024/03/31 04:36:12;;;;;;;7.10;6.38;;;;;;;;;;4971479;28;20551;-73
2024/03/31 04:38:38;;;;;;;8.40;6.32;;;;;;;;;;4973905;28;20095;-73
2024/03/31 04:41:05;;;;;;;7.30;6.65;;;;;;;;;;4972439;28;20062;-73
2024/03/31 04:43:31;;;;;;;10.25;6.82;;;;;;;;;;4972261;28;20159;-73
2024/03/31 04:46:06;;;;;;;7.60;6.07;;;;;;;;;;4972348;28;20539;-73
2024/03/31 04:48:36;;;;;;;7.82;6.35;;;;;;;;;;4972066;28;20455;-73
2024/03/31 04:51:08;;;;;;;6.55;5.90;;;;;;;;;;4972072;28;20045;-73
2024/03/31 04:53:34;;;;;;;5.88;5.38;;;;;;;;;;4973554;28;20041;-73
2024/03/31 04:56:03;;;;;;;6.60;6.10;;;;;;;;;;4955271;28;20055;-75
2024/03/31 04:58:28;;;;;;;6.72;6.15;;;;;;;;;;4971375;28;20059;-74
2024/03/31 05:00:55;;;;;;;6.40;5.90;;;;;;;;;;4973069;28;20031;-74
2024/03/31 05:03:24;;;;;;;7.00;6.22;;;;;;;;;;4972074;28;20134;-73
2024/03/31 05:05:50;;;;;;;6.63;6.13;;;;;;;;;;4987790;28;20046;-73
2024/03/31 05:08:16;;;;;;;6.55;6.00;;;;;;;;;;4973460;28;20278;-74
2024/03/31 05:11:03;;;;;;;6.97;6.38;;;;;;;;;;4973974;28;20046;-75
2024/03/31 05:13:32;;;;;;;7.97;6.22;;;;;;;;;;4969742;28;20030;-73
2024/03/31 05:16:01;;;;;;;8.60;6.60;;;;;;;;;;4968454;28;20050;-72
2024/03/31 05:18:26;;;;;;;7.38;6.68;;;;;;;;;;4969591;28;20050;-73
2024/03/31 05:20:59;;;;;;;6.65;6.05;;;;;;;;;;4969371;28;20046;-73
2024/03/31 05:23:25;;;;;;;8.43;6.82;;;;;;;;;;4969541;28;20097;-73
2024/03/31 05:25:51;;;;;;;8.57;6.38;;;;;;;;;;4969633;28;20125;-73
2024/03/31 05:28:18;;;;;;;6.80;6.20;;;;;;;;;;4969369;28;20043;-73
2024/03/31 05:30:44;;;;;;;8.23;7.22;;;;;;;;;;4946178;28;20524;-73
2024/03/31 05:33:11;;;;;;;27.50;21.42;;;;;;;;;;4969329;28;20129;-73
2024/03/31 05:36:03;;;;;;;7.40;6.80;;;;;;;;;;4965476;28;20068;-74
2024/03/31 05:38:29;;;;;;;6.70;6.10;;;;;;;;;;4969395;28;20047;-74
2024/03/31 05:41:08;;;;;;;9.17;6.57;;;;;;;;;;4969233;28;20550;-74
2024/03/31 05:43:34;;;;;;;7.18;6.57;;;;;;;;;;4969364;28;20705;-76
2024/03/31 05:46:00;;;;;;;7.22;6.28;;;;;;;;;;4961449;28;20042;-74
2024/03/31 05:48:27;;;;;;;8.15;7.07;;;;;;;;;;4968012;28;20117;-75
2024/03/31 05:50:52;;;;;;;6.75;6.35;;;;;;;;;;4949728;28;20041;-74
2024/03/31 05:53:19;;;;;;;7.93;7.13;;;;;;;;;;4947311;28;20506;-75
2024/03/31 05:55:45;;;;;;;7.47;6.88;;;;;;;;;;4951227;28;20046;-75
2024/03/31 05:58:11;;;;;;;9.05;7.65;;;;;;;;;;4962191;28;20125;-76
2024/03/31 06:00:39;;;;;;;8.77;7.78;;;;;;;;;;4954134;28;20278;-76
2024/03/31 06:03:07;;;;;;;8.10;7.40;;;;;;;;;;4961558;28;20070;-74
2024/03/31 06:05:32;;;;;;;7.47;6.82;;;;;;;;;;4933234;29;20102;-73
2024/03/31 06:07:58;;;;;;;7.53;6.80;;;;;;;;;;4923641;28;20097;-73
2024/03/31 06:10:25;;;;;;;7.70;6.90;;;;;;;;;;4967683;28;20043;-73
2024/03/31 06:12:52;;;;;;;10.43;7.70;;;;;;;;;;4970711;28;20062;-76
2024/03/31 06:15:18;;;;;;;8.57;7.70;;;;;;;;;;4964859;28;20090;-75
2024/03/31 06:17:45;;;;;;;8.68;7.22;;;;;;;;;;4967765;28;20042;-74
2024/03/31 06:20:12;;;;;;;11.50;8.02;;;;;;;;;;4971743;28;20034;-79
2024/03/31 06:22:41;;;;;;;9.93;8.57;;;;;;;;;;4953613;28;20038;-77
2024/03/31 06:25:08;;;;;;;10.98;7.72;;;;;;;;;;4952580;28;20101;-75
2024/03/31 06:27:36;;;;;;;8.95;8.05;;;;;;;;;;4951760;28;20030;-77
2024/03/31 06:30:03;;;;;;;10.50;7.75;;;;;;;;;;4936349;28;20042;-75
2024/03/31 06:32:31;;;;;;;17.13;9.13;;;;;;;;;;4984726;28;20510;-77
2024/03/31 06:34:57;;;;;;;10.93;8.40;;;;;;;;;;4962299;28;20031;-77
2024/03/31 06:37:23;;;;;;;13.77;8.15;;;;;;;;;;4960645;28;20049;-76
2024/03/31 06:39:50;;;;;;;8.95;8.05;;;;;;;;;;4964804;28;20054;-79
2024/03/31 06:42:35;;;;;;;8.73;7.88;;;;;;;;;;4967729;28;20027;-77
2024/03/31 06:45:01;;;;;;;8.93;7.88;;;;;;;;;;4950018;28;20482;-77
2024/03/31 06:47:32;;;;;;;10.18;8.40;;;;;;;;;;4981988;28;20064;-77
2024/03/31 06:49:59;;;;;;;10.52;7.50;;;;;;;;;;4967426;28;20113;-77
2024/03/31 06:52:26;;;;;;;10.23;7.78;;;;;;;;;;4968415;28;20043;-78
2024/03/31 06:54:53;;;;;;;11.98;8.48;;;;;;;;;;4968447;28;20031;-76
2024/03/31 06:57:19;;;;;;;10.82;8.63;;;;;;;;;;4975370;28;20038;-76
2024/03/31 06:59:48;;;;;;;9.35;7.75;;;;;;;;;;4978086;28;20038;-77
2024/03/31 07:02:14;;;;;;;9.68;8.82;;;;;;;;;;4975885;28;20039;-77
2024/03/31 07:04:40;;;;;;;10.18;9.18;;;;;;;;;;4956157;28;20039;-78
2024/03/31 07:07:06;;;;;;;13.70;8.88;;;;;;;;;;4948752;28;20043;-78
2024/03/31 07:09:32;;;;;;;9.02;8.10;;;;;;;;;;4967285;28;20032;-80
2024/03/31 07:11:58;;;;;;;10.85;8.25;;;;;;;;;;4934639;28;20039;-78
2024/03/31 07:14:24;;;;;;;9.38;7.85;;;;;;;;;;4949640;28;20035;-77
2024/03/31 07:16:52;;;;;;;11.40;7.07;;;;;;;;;;4973261;28;20182;-81
2024/03/31 07:19:18;;;;;;;16.65;8.52;;;;;;;;;;4964147;28;20129;-79
2024/03/31 07:21:44;;;;;;;12.50;8.48;;;;;;;;;;4962771;28;20206;-75
2024/03/31 07:24:10;;;;;;;11.10;8.10;;;;;;;;;;4936480;29;20460;-77
2024/03/31 07:26:36;;;;;;;11.52;7.28;;;;;;;;;;4952974;28;20189;-78
2024/03/31 07:29:02;;;;;;;9.75;7.78;;;;;;;;;;4968636;28;20122;-80
2024/03/31 07:31:28;;;;;;;15.35;7.40;;;;;;;;;;4968952;28;20039;-77
2024/03/31 07:33:54;;;;;;;14.48;7.43;;;;;;;;;;4968748;28;20068;-78
2024/03/31 07:36:20;;;;;;;16.52;7.53;;;;;;;;;;4968498;28;20050;-77
2024/03/31 07:38:46;;;;;;;16.70;7.50;;;;;;;;;;4966342;28;20035;-77
2024/03/31 07:41:12;;;;;;;7.53;6.63;;;;;;;;;;4950111;29;20105;-78
2024/03/31 07:43:37;;;;;;;9.40;6.00;;;;;;;;;;4969587;28;20053;-80
2024/03/31 07:46:03;;;;;;;9.27;6.55;;;;;;;;;;4969623;28;20048;-78
2024/03/31 07:48:32;;;;;;;12.20;6.50;;;;;;;;;;4971073;28;20058;-80
2024/03/31 07:50:58;;;;;;;8.13;6.20;;;;;;;;;;4971957;28;20039;-79
2024/03/31 07:53:24;;;;;;;8.50;6.03;;;;;;;;;;4972571;28;20035;-79
2024/03/31 07:55:59;;;;;;;9.35;6.22;;;;;;;;;;4972039;28;20039;-79
2024/03/31 07:58:25;;;;;;;7.25;6.30;;;;;;;;;;4972732;28;20555;-79
2024/03/31 08:00:51;;;;;;;9.30;6.13;;;;;;;;;;4971380;28;20035;-78
2024/03/31 08:03:17;;;;;;;8.80;6.20;;;;;;;;;;4964091;28;20813;-79
2024/03/31 08:05:43;;;;;;;10.48;6.88;;;;;;;;;;4954588;28;20038;-76
2024/03/31 08:08:10;;;;;;;6.57;5.72;;;;;;;;;;4970067;28;20038;-76
2024/03/31 08:10:35;;;;;;;7.60;6.20;;;;;;;;;;4953786;29;20070;-79
2024/03/31 08:13:02;;;;;;;6.72;5.95;;;;;;;;;;4951683;28;20074;-78
2024/03/31 08:15:28;;;;;;;13.07;6.30;;;;;;;;;;4952509;28;20138;-77
2024/03/31 08:17:54;;;;;;;7.47;5.57;;;;;;;;;;4954580;28;20035;-82
2024/03/31 08:20:20;;;;;;;12.77;5.95;;;;;;;;;;4955665;28;20105;-80
2024/03/31 08:22:46;;;;;;;8.43;6.32;;;;;;;;;;4967977;28;20455;-79
2024/03/31 08:25:12;;;;;;;7.60;6.85;;;;;;;;;;4972045;28;20050;-79
2024/03/31 08:27:38;;;;;;;11.90;6.80;;;;;;;;;;4971944;28;20578;-77
2024/03/31 08:30:04;;;;;;;7.15;6.45;;;;;;;;;;4968187;28;20066;-79
2024/03/31 08:32:31;;;;;;;9.98;7.20;;;;;;;;;;4962784;28;20045;-81
2024/03/31 08:34:57;;;;;;;9.52;7.05;;;;;;;;;;4954701;28;20034;-79
2024/03/31 08:37:23;;;;;;;8.85;6.07;;;;;;;;;;4973112;28;20037;-79
2024/03/31 08:39:49;;;;;;;8.32;6.82;;;;;;;;;;4966429;28;20046;-81
2024/03/31 08:42:22;;;;;;;9.93;6.97;;;;;;;;;;4972059;28;20049;-80
2024/03/31 08:44:48;;;;;;;7.63;6.88;;;;;;;;;;4954639;28;20053;-80
2024/03/31 08:47:15;;;;;;;11.85;7.30;;;;;;;;;;4969732;28;20162;-78
2024/03/31 08:49:40;;;;;;;7.43;6.72;;;;;;;;;;4957932;28;20090;-78
2024/03/31 08:52:25;;;;;;;10.68;7.13;;;;;;;;;;4953864;29;20075;-79
2024/03/31 08:54:51;;;;;;;8.02;5.88;;;;;;;;;;4963882;28;20034;-78
2024/03/31 08:57:17;;;;;;;12.90;5.97;;;;;;;;;;4972148;28;20045;-79
2024/03/31 08:59:43;;;;;;;9.82;6.10;;;;;;;;;;4973597;28;20035;-80
2024/03/31 09:02:10;;;;;;;8.85;6.20;;;;;;;;;;4970644;28;20058;-79
2024/03/31 09:04:36;;;;;;;7.90;6.55;;;;;;;;;;4954043;28;20051;-78
2024/03/31 09:07:02;;;;;;;6.38;5.78;;;;;;;;;;4952132;29;20428;-80
2024/03/31 09:09:28;;;;;;;9.05;5.82;;;;;;;;;;4955641;28;20043;-76
2024/03/31 09:11:54;;;;;;;11.25;5.30;;;;;;;;;;4962520;28;20031;-78
2024/03/31 09:14:20;;;;;;;7.30;5.75;;;;;;;;;;4969588;28;20034;-77
2024/03/31 09:16:47;;;;;;;8.93;5.60;;;;;;;;;;4971233;28;20125;-79
2024/03/31 09:19:13;;;;;;;7.45;5.90;;;;;;;;;;4969103;28;20547;-76
2024/03/31 09:21:43;;;;;;;5.80;5.32;;;;;;;;;;4959748;28;20173;-77
2024/03/31 09:24:09;;;;;;;11.45;6.43;;;;;;;;;;4969503;28;20043;-78
2024/03/31 09:26:35;;;;;;;7.38;6.68;;;;;;;;;;4951794;28;20102;-77
2024/03/31 09:29:01;;;;;;;7.47;6.47;;;;;;;;;;4966672;28;20046;-79
2024/03/31 09:31:27;;;;;;;9.45;6.90;;;;;;;;;;4972088;28;20561;-77
2024/03/31 09:33:53;;;;;;;15.95;7.13;;;;;;;;;;4972001;28;20046;-76
2024/03/31 09:36:19;;;;;;;8.15;6.85;;;;;;;;;;4969867;28;20043;-75
2024/03/31 09:38:45;;;;;;;10.60;7.13;;;;;;;;;;4972256;28;20070;-74
2024/03/31 09:41:10;;;;;;;10.02;7.40;;;;;;;;;;4971028;28;20113;-77
2024/03/31 09:43:36;;;;;;;11.85;7.20;;;;;;;;;;4969873;28;20308;-77
2024/03/31 09:46:03;;;;;;;14.07;6.93;;;;;;;;;;4968846;28;20618;-76
2024/03/31 09:48:29;;;;;;;11.60;7.18;;;;;;;;;;4970727;28;20426;-76
2024/03/31 09:51:00;;;;;;;10.88;7.15;;;;;;;;;;4972039;28;20114;-77
2024/03/31 09:53:27;;;;;;;8.82;7.25;;;;;;;;;;4971835;28;20121;-76
2024/03/31 09:55:53;;;;;;;9.00;7.43;;;;;;;;;;4971252;28;20098;-76
2024/03/31 09:58:19;;;;;;;10.50;7.30;;;;;;;;;;4970211;28;20035;-76
2024/03/31 10:00:46;;;;;;;8.05;6.88;;;;;;;;;;4972238;28;20408;-76
2024/03/31 10:03:47;;;;;;;8.88;7.35;;;;;;;;;;4971831;28;20051;-77
2024/03/31 10:06:13;;;;;;;8.40;7.43;;;;;;;;;;4911355;29;20054;-76
2024/03/31 10:08:40;;;;;;;9.20;6.80;;;;;;;;;;4959855;28;20054;-76
2024/03/31 10:11:06;;;;;;;6.90;6.20;;;;;;;;;;4954699;28;20038;-76
2024/03/31 10:13:32;;;;;;;6.25;5.43;;;;;;;;;;4971349;28;20106;-76
2024/03/31 10:15:58;;;;;;;10.68;5.53;;;;;;;;;;4954558;28;20758;-76
2024/03/31 10:18:24;;;;;;;8.35;4.90;;;;;;;;;;4972076;28;20046;-77
2024/03/31 10:20:50;;;;;;;8.00;5.03;;;;;;;;;;4973381;28;20408;-77
2024/03/31 10:23:19;;;;;;;6.38;5.70;;;;;;;;;;4972405;28;20045;-78
2024/03/31 10:25:45;;;;;;;6.55;4.90;;;;;;;;;;4972424;28;20041;-76
2024/03/31 10:28:12;;;;;;;9.70;5.38;;;;;;;;;;4988326;28;20031;-78
2024/03/31 10:30:38;;;;;;;6.95;4.97;;;;;;;;;;4974597;28;20039;-78
2024/03/31 10:33:04;;;;;;;6.40;5.80;;;;;;;;;;4975670;28;20053;-76
2024/03/31 10:35:31;;;;;;;6.63;5.88;;;;;;;;;;4976978;28;20046;-78
2024/03/31 10:37:57;;;;;;;6.18;5.03;;;;;;;;;;4959566;28;20053;-77
2024/03/31 10:40:26;;;;;;;8.10;5.22;;;;;;;;;;4971196;28;20038;-78
2024/03/31 10:42:55;;;;;;;5.40;4.90;;;;;;;;;;4971277;28;20055;-77
2024/03/31 10:45:27;;;;;;;5.43;4.45;;;;;;;;;;4970864;28;20353;-77
2024/03/31 10:47:53;;;;;;;4.80;4.30;;;;;;;;;;4952710;28;20062;-79
2024/03/31 10:50:23;;;;;;;6.78;4.00;;;;;;;;;;4950832;29;20035;-78
2024/03/31 10:52:49;;;;;;;5.25;3.90;;;;;;;;;;4950571;29;20041;-77
2024/03/31 10:55:16;;;;;;;3.90;3.60;;;;;;;;;;4965277;28;20047;-78
2024/03/31 10:57:43;;;;;;;6.63;4.03;;;;;;;;;;4950250;28;20023;-78
2024/03/31 11:00:16;;;;;;;4.30;3.88;;;;;;;;;;4950091;29;20043;-78
2024/03/31 11:02:42;;;;;;;3.75;3.45;;;;;;;;;;4951816;29;20500;-78
2024/03/31 11:05:08;;;;;;;5.78;3.60;;;;;;;;;;4949095;28;20050;-78
2024/03/31 11:07:34;;;;;;;5.63;4.28;;;;;;;;;;4951727;28;20042;-77
2024/03/31 11:10:01;;;;;;;5.68;3.28;;;;;;;;;;4951307;28;20118;-78
2024/03/31 11:12:27;;;;;;;4.35;3.95;;;;;;;;;;4957394;28;20042;-78
2024/03/31 11:14:54;;;;;;;5.05;3.25;;;;;;;;;;4984777;28;20045;-78
2024/03/31 11:17:20;;;;;;;3.88;3.10;;;;;;;;;;4970477;28;20382;-77
2024/03/31 11:19:46;;;;;;;3.55;3.25;;;;;;;;;;4970675;28;20042;-78
2024/03/31 11:22:12;;;;;;;3.70;3.38;;;;;;;;;;4985146;28;20035;-78
2024/03/31 11:24:38;;;;;;;3.78;3.15;;;;;;;;;;4969084;28;20141;-78
2024/03/31 11:27:04;;;;;;;3.78;3.40;;;;;;;;;;4968275;28;20071;-77
2024/03/31 11:29:30;;;;;;;7.80;3.50;;;;;;;;;;4968528;28;20480;-78
2024/03/31 11:31:56;;;;;;;3.80;3.28;;;;;;;;;;4970213;28;20074;-78
2024/03/31 11:34:22;;;;;;;4.07;3.53;;;;;;;;;;4972822;28;20065;-76
2024/03/31 11:36:50;;;;;;;3.80;3.45;;;;;;;;;;4973284;28;20047;-78
2024/03/31 11:39:16;;;;;;;3.80;3.50;;;;;;;;;;4969422;28;20129;-78
2024/03/31 11:41:42;;;;;;;7.68;3.30;;;;;;;;;;4970800;28;20045;-78
2024/03/31 11:44:08;;;;;;;4.07;2.83;;;;;;;;;;4968961;28;20042;-78
2024/03/31 11:46:37;;;;;;;3.80;3.13;;;;;;;;;;4969162;28;20507;-77
2024/03/31 11:49:03;;;;;;;3.50;3.20;;;;;;;;;;4969611;28;20101;-77
2024/03/31 11:51:37;;;;;;;3.17;2.90;;;;;;;;;;4969460;28;20034;-77
2024/03/31 11:54:04;;;;;;;3.50;3.20;;;;;;;;;;4969686;28;20070;-77
2024/03/31 11:56:30;;;;;;;4.28;3.58;;;;;;;;;;4968588;28;20050;-77
2024/03/31 11:58:56;;;;;;;3.70;3.40;;;;;;;;;;4969424;28;20031;-77
2024/03/31 12:01:24;;;;;;;5.18;3.17;;;;;;;;;;4953073;28;20046;-77
2024/03/31 12:03:56;;;;;;;3.50;3.20;;;;;;;;;;4969430;28;20050;-77
2024/03/31 12:06:22;;;;;;;5.00;3.08;;;;;;;;;;4968424;28;20050;-77
2024/03/31 12:08:51;;;;;;;3.90;3.50;;;;;;;;;;4972203;28;20046;-76
2024/03/31 12:11:20;;;;;;;3.80;3.42;;;;;;;;;;4973984;28;20150;-77
2024/03/31 12:13:49;;;;;;;3.85;3.30;;;;;;;;;;4974115;28;20051;-76
2024/03/31 12:16:15;;;;;;;3.47;3.13;;;;;;;;;;4971713;28;20053;-76
2024/03/31 12:18:41;;;;;;;3.80;3.20;;;;;;;;;;4972819;28;20042;-77
2024/03/31 12:21:07;;;;;;;4.20;3.90;;;;;;;;;;4974151;28;20491;-77
2024/03/31 12:23:33;;;;;;;4.57;4.18;;;;;;;;;;4956389;28;20092;-79
2024/03/31 12:26:00;;;;;;;5.38;4.88;;;;;;;;;;4972464;28;20055;-77
2024/03/31 12:28:26;;;;;;;5.15;4.75;;;;;;;;;;4973965;28;20570;-76
2024/03/31 12:30:52;;;;;;;4.60;4.00;;;;;;;;;;4972716;28;20400;-78
2024/03/31 12:33:19;;;;;;;4.30;4.00;;;;;;;;;;4973637;28;20037;-77
2024/03/31 12:35:45;;;;;;;3.72;3.38;;;;;;;;;;4972860;28;20512;-77
2024/03/31 12:38:11;;;;;;;4.20;3.58;;;;;;;;;;4956284;28;20030;-77
2024/03/31 12:40:37;;;;;;;10.13;5.20;;;;;;;;;;4973712;28;20097;-78
2024/03/31 12:43:03;;;;;;;5.93;5.43;;;;;;;;;;4988759;28;20110;-78
2024/03/31 12:45:32;;;;;;;6.07;5.47;;;;;;;;;;4986880;28;20049;-77
2024/03/31 12:48:02;;;;;;;9.52;5.55;;;;;;;;;;4973701;28;20050;-77
2024/03/31 12:50:31;;;;;;;6.80;5.70;;;;;;;;;;4988225;28;20046;-76
2024/03/31 12:53:09;;;;;;;6.03;5.43;;;;;;;;;;4973772;28;20118;-77
2024/03/31 12:55:37;;;;;;;6.13;5.53;;;;;;;;;;4972359;28;20117;-77
2024/03/31 12:58:04;;;;;;;6.68;6.00;;;;;;;;;;4973288;28;20081;-77
2024/03/31 13:00:30;;;;;;;8.48;5.50;;;;;;;;;;4973139;28;20050;-77
2024/03/31 13:02:56;;;;;;;6.60;5.40;;;;;;;;;;4973512;28;20038;-75
2024/03/31 13:05:24;;;;;;;7.18;5.97;;;;;;;;;;4971881;28;20065;-76
2024/03/31 13:07:50;;;;;;;5.63;4.47;;;;;;;;;;4988410;28;20459;-75
2024/03/31 13:10:16;;;;;;;4.03;2.97;;;;;;;;;;4971652;28;20049;-76
2024/03/31 13:12:42;;;;;;;3.10;2.90;;;;;;;;;;4955692;28;20069;-75
2024/03/31 13:15:08;;;;;;;4.50;3.50;;;;;;;;;;4986979;28;20066;-76
2024/03/31 13:17:34;;;;;;;4.25;3.30;;;;;;;;;;4971776;28;20411;-76
2024/03/31 13:20:00;;;;;;;2.63;2.42;;;;;;;;;;4971767;28;20027;-77
2024/03/31 13:22:25;;;;;;;4.32;2.80;;;;;;;;;;4972795;28;20506;-76
2024/03/31 13:24:51;;;;;;;2.97;2.78;;;;;;;;;;4970969;28;20113;-78
2024/03/31 13:27:18;;;;;;;3.65;2.63;;;;;;;;;;4972892;28;20031;-78
2024/03/31 13:29:43;;;;;;;3.65;3.15;;;;;;;;;;4971693;28;20055;-78
2024/03/31 13:32:12;;;;;;;5.45;3.20;;;;;;;;;;4973003;28;20038;-77
2024/03/31 13:34:38;;;;;;;8.15;3.00;;;;;;;;;;4971490;28;20066;-78
2024/03/31 13:37:04;;;;;;;11.02;3.55;;;;;;;;;;4972255;28;20071;-78
2024/03/31 13:39:30;;;;;;;2.88;2.67;;;;;;;;;;4971696;28;20058;-77
2024/03/31 13:41:55;;;;;;;6.53;3.00;;;;;;;;;;4973495;28;20121;-78
2024/03/31 13:44:22;;;;;;;3.85;2.30;;;;;;;;;;4972175;28;20090;-78
2024/03/31 13:46:48;;;;;;;6.57;2.67;;;;;;;;;;4987579;28;20047;-77
2024/03/31 13:49:15;;;;;;;3.88;2.60;;;;;;;;;;4972200;28;20481;-77
2024/03/31 13:51:41;;;;;;;3.40;3.10;;;;;;;;;;4975498;28;20554;-78
2024/03/31 13:54:07;;;;;;;7.80;2.70;;;;;;;;;;4994386;28;20047;-79
2024/03/31 13:56:33;;;;;;;4.15;2.40;;;;;;;;;;4977749;28;20067;-79
2024/03/31 13:58:59;;;;;;;2.85;2.17;;;;;;;;;;4974610;28;20034;-79
2024/03/31 14:01:24;;;;;;;3.50;2.40;;;;;;;;;;4972018;28;20471;-79
2024/03/31 14:03:50;;;;;;;5.78;2.20;;;;;;;;;;4973577;28;20053;-80
2024/03/31 14:06:16;;;;;;;2.65;1.95;;;;;;;;;;4971672;28;20515;-80
2024/03/31 14:08:42;;;;;;;2.58;2.03;;;;;;;;;;4972479;28;20134;-78
2024/03/31 14:11:08;;;;;;;2.50;2.30;;;;;;;;;;4970916;28;20500;-78
2024/03/31 14:13:37;;;;;;;3.22;2.92;;;;;;;;;;4971591;28;20048;-78
2024/03/31 14:16:04;;;;;;;3.78;3.38;;;;;;;;;;4971587;28;20038;-78
2024/03/31 14:18:29;;;;;;;3.00;2.65;;;;;;;;;;4971360;28;20043;-77
2024/03/31 14:20:55;;;;;;;3.08;2.80;;;;;;;;;;4971867;28;20026;-78
2024/03/31 14:23:21;;;;;;;4.30;2.90;;;;;;;;;;4970199;28;20045;-78
2024/03/31 14:25:47;;;;;;;4.75;2.70;;;;;;;;;;4969707;28;20035;-78
2024/03/31 14:28:13;;;;;;;3.47;2.78;;;;;;;;;;4970401;28;20066;-78
2024/03/31 14:30:39;;;;;;;5.25;3.60;;;;;;;;;;4969754;28;20034;-79
2024/03/31 14:33:07;;;;;;;3.22;2.92;;;;;;;;;;4970775;28;20595;-79
2024/03/31 14:35:35;;;;;;;2.50;2.30;;;;;;;;;;4969268;28;20125;-78
2024/03/31 14:38:20;;;;;;;6.03;3.25;;;;;;;;;;4970541;28;20043;-79